createdAt,value
2016-12-26T00:00:04.846Z,36.4
2016-12-26T00:00:45.431Z,36.4
2016-12-26T00:01:26.013Z,36.52
2016-12-26T00:02:06.593Z,36.52
2016-12-26T00:02:47.180Z,36.4
2016-12-26T00:03:27.774Z,36.59
2016-12-26T00:04:08.360Z,36.5
2016-12-26T00:04:48.937Z,36.42
2016-12-26T00:05:29.524Z,36.69
2016-12-26T00:06:10.114Z,36.69
2016-12-26T00:06:50.700Z,36.59
2016-12-26T00:07:31.274Z,36.5
2016-12-26T00:08:11.854Z,36.4
2016-12-26T00:08:52.432Z,36.4
2016-12-26T00:09:33.011Z,36.4
2016-12-26T00:10:13.605Z,36.5
2016-12-26T00:10:54.196Z,36.5
2016-12-26T00:11:34.795Z,36.52
2016-12-26T00:12:15.381Z,36.4
2016-12-26T00:12:55.974Z,36.4
2016-12-26T00:13:36.568Z,36.61
2016-12-26T00:14:17.166Z,36.4
2016-12-26T00:14:57.738Z,36.5
2016-12-26T00:15:38.324Z,36.5
2016-12-26T00:16:18.915Z,36.3
2016-12-26T00:16:59.485Z,36.52
2016-12-26T00:17:40.071Z,36.69
2016-12-26T00:18:20.659Z,36.61
2016-12-26T00:19:01.250Z,36.52
2016-12-26T00:19:41.832Z,36.59
2016-12-26T00:20:22.423Z,36.59
2016-12-26T00:21:03.023Z,36.59
2016-12-26T00:21:43.597Z,36.5
2016-12-26T00:22:24.175Z,36.69
2016-12-26T00:23:04.761Z,36.61
2016-12-26T00:23:45.343Z,36.3
2016-12-26T00:24:25.921Z,36.59
2016-12-26T00:25:06.513Z,36.61
2016-12-26T00:25:47.094Z,36.5
2016-12-26T00:26:27.681Z,36.69
2016-12-26T00:27:08.270Z,36.71
2016-12-26T00:27:48.847Z,36.5
2016-12-26T00:28:29.436Z,36.59
2016-12-26T00:29:10.020Z,36.59
2016-12-26T00:29:50.608Z,36.69
2016-12-26T00:30:31.193Z,36.61
2016-12-26T00:31:11.784Z,36.69
2016-12-26T00:31:52.363Z,36.5
2016-12-26T00:32:32.949Z,36.59
2016-12-26T00:33:13.538Z,36.5
2016-12-26T00:33:54.123Z,36.5
2016-12-26T00:34:34.743Z,36.52
2016-12-26T00:35:15.322Z,36.69
2016-12-26T00:35:55.910Z,36.59
2016-12-26T00:36:36.507Z,36.59
2016-12-26T00:37:17.098Z,36.69
2016-12-26T00:37:57.703Z,36.59
2016-12-26T00:38:38.309Z,36.5
2016-12-26T00:39:18.914Z,36.5
2016-12-26T00:39:59.483Z,36.5
2016-12-26T00:40:40.066Z,36.59
2016-12-26T00:41:20.649Z,36.5
2016-12-26T00:42:01.238Z,36.59
2016-12-26T00:42:41.836Z,36.5
2016-12-26T00:43:22.427Z,36.4
2016-12-26T00:44:03.038Z,36.5
2016-12-26T00:44:43.636Z,36.71
2016-12-26T00:45:24.226Z,36.4
2016-12-26T00:46:04.801Z,36.5
2016-12-26T00:46:45.396Z,36.69
2016-12-26T00:47:25.976Z,36.5
2016-12-26T00:48:06.555Z,36.59
2016-12-26T00:48:47.139Z,36.5
2016-12-26T00:49:27.723Z,36.71
2016-12-26T00:50:08.304Z,36.5
2016-12-26T00:50:48.896Z,36.69
2016-12-26T00:51:29.478Z,36.59
2016-12-26T00:52:10.069Z,36.5
2016-12-26T00:52:50.653Z,36.79
2016-12-26T00:53:31.239Z,36.4
2016-12-26T00:54:11.818Z,36.69
2016-12-26T00:54:52.417Z,36.59
2016-12-26T00:55:33.002Z,36.59
2016-12-26T00:56:13.580Z,36.59
2016-12-26T00:56:54.177Z,36.59
2016-12-26T00:57:34.761Z,36.59
2016-12-26T00:58:15.348Z,36.5
2016-12-26T00:58:55.924Z,36.5
2016-12-26T00:59:36.510Z,36.5
2016-12-26T01:00:17.090Z,36.59
2016-12-26T01:00:57.671Z,36.69
2016-12-26T01:01:38.248Z,36.42
2016-12-26T01:02:18.824Z,36.59
2016-12-26T01:02:59.415Z,36.5
2016-12-26T01:03:40.007Z,36.69
2016-12-26T01:04:20.601Z,36.59
2016-12-26T01:05:01.207Z,36.69
2016-12-26T01:05:41.797Z,36.52
2016-12-26T01:06:22.374Z,36.59
2016-12-26T01:07:02.955Z,36.59
2016-12-26T01:07:43.544Z,36.5
2016-12-26T01:08:24.124Z,36.59
2016-12-26T01:09:04.718Z,36.59
2016-12-26T01:09:45.298Z,36.5
2016-12-26T01:10:25.879Z,36.5
2016-12-26T01:11:06.481Z,36.69
2016-12-26T01:11:47.086Z,36.69
2016-12-26T01:12:27.676Z,36.5
2016-12-26T01:13:08.264Z,36.4
2016-12-26T01:13:48.855Z,36.69
2016-12-26T01:14:29.447Z,36.79
2016-12-26T01:15:10.065Z,36.69
2016-12-26T01:15:50.678Z,36.5
2016-12-26T01:16:31.258Z,36.69
2016-12-26T01:17:11.836Z,36.59
2016-12-26T01:17:52.448Z,36.5
2016-12-26T01:18:33.031Z,36.69
2016-12-26T01:19:13.619Z,36.88
2016-12-26T01:19:54.217Z,36.59
2016-12-26T01:20:34.819Z,36.59
2016-12-26T01:21:15.406Z,36.69
2016-12-26T01:21:55.994Z,36.5
2016-12-26T01:22:36.594Z,36.59
2016-12-26T01:23:17.192Z,36.59
2016-12-26T01:23:57.788Z,36.5
2016-12-26T01:24:38.366Z,36.69
2016-12-26T01:25:18.958Z,36.5
2016-12-26T01:25:59.546Z,36.5
2016-12-26T01:26:40.149Z,36.5
2016-12-26T01:27:20.738Z,36.5
2016-12-26T01:28:01.336Z,36.5
2016-12-26T01:28:41.914Z,36.59
2016-12-26T01:29:22.494Z,36.5
2016-12-26T01:30:03.073Z,36.59
2016-12-26T01:30:43.657Z,36.69
2016-12-26T01:31:24.247Z,36.88
2016-12-26T01:32:04.852Z,36.69
2016-12-26T01:32:45.430Z,36.5
2016-12-26T01:33:26.034Z,36.59
2016-12-26T01:34:06.621Z,36.59
2016-12-26T01:34:47.229Z,36.5
2016-12-26T01:35:27.811Z,36.69
2016-12-26T01:36:08.402Z,36.5
2016-12-26T01:36:48.985Z,36.59
2016-12-26T01:37:29.571Z,36.69
2016-12-26T01:38:10.169Z,36.69
2016-12-26T01:38:50.779Z,36.79
2016-12-26T01:39:31.372Z,36.79
2016-12-26T01:40:11.963Z,36.5
2016-12-26T01:40:52.548Z,36.69
2016-12-26T01:41:33.142Z,36.69
2016-12-26T01:42:13.744Z,36.59
2016-12-26T01:42:54.330Z,36.59
2016-12-26T01:43:34.922Z,36.59
2016-12-26T01:44:15.519Z,36.59
2016-12-26T01:44:56.102Z,36.5
2016-12-26T01:45:36.691Z,36.5
2016-12-26T01:46:17.304Z,36.59
2016-12-26T01:46:57.892Z,36.5
2016-12-26T01:47:38.492Z,36.59
2016-12-26T01:48:19.087Z,36.5
2016-12-26T01:48:59.689Z,36.59
2016-12-26T01:49:40.275Z,36.59
2016-12-26T01:50:20.869Z,36.69
2016-12-26T01:51:01.449Z,36.69
2016-12-26T01:51:42.034Z,36.4
2016-12-26T01:52:22.646Z,36.5
2016-12-26T01:53:03.237Z,36.69
2016-12-26T01:53:43.838Z,36.4
2016-12-26T01:54:24.426Z,36.79
2016-12-26T01:55:05.010Z,36.59
2016-12-26T01:55:45.617Z,36.59
2016-12-26T01:56:26.210Z,36.59
2016-12-26T01:57:06.793Z,36.59
2016-12-26T01:57:47.381Z,36.4
2016-12-26T01:58:27.979Z,36.5
2016-12-26T01:59:08.586Z,36.69
2016-12-26T01:59:49.177Z,36.5
2016-12-26T02:00:29.757Z,36.59
2016-12-26T02:01:10.341Z,36.59
2016-12-26T02:01:50.932Z,36.59
2016-12-26T02:02:31.518Z,36.59
2016-12-26T02:03:12.091Z,36.79
2016-12-26T02:03:52.682Z,36.5
2016-12-26T02:04:33.290Z,36.5
2016-12-26T02:05:13.886Z,36.59
2016-12-26T02:05:54.497Z,36.59
2016-12-26T02:06:35.098Z,36.5
2016-12-26T02:07:15.695Z,36.69
2016-12-26T02:07:56.290Z,36.5
2016-12-26T02:08:36.876Z,36.5
2016-12-26T02:09:17.469Z,36.59
2016-12-26T02:09:58.047Z,36.59
2016-12-26T02:10:38.631Z,36.59
2016-12-26T02:11:19.213Z,36.69
2016-12-26T02:11:59.806Z,36.79
2016-12-26T02:12:40.411Z,36.5
2016-12-26T02:13:20.997Z,36.5
2016-12-26T02:14:01.582Z,36.59
2016-12-26T02:14:42.169Z,36.5
2016-12-26T02:15:22.759Z,36.69
2016-12-26T02:16:03.354Z,36.5
2016-12-26T02:16:43.932Z,36.5
2016-12-26T02:17:24.521Z,36.5
2016-12-26T02:18:05.112Z,36.69
2016-12-26T02:18:45.689Z,36.59
2016-12-26T02:19:26.300Z,36.4
2016-12-26T02:20:06.883Z,36.59
2016-12-26T02:20:47.484Z,36.5
2016-12-26T02:21:28.079Z,36.5
2016-12-26T02:22:08.676Z,36.59
2016-12-26T02:22:49.267Z,36.5
2016-12-26T02:23:29.865Z,36.5
2016-12-26T02:24:10.450Z,36.4
2016-12-26T02:24:51.045Z,36.59
2016-12-26T02:25:31.633Z,36.59
2016-12-26T02:26:12.228Z,36.69
2016-12-26T02:26:52.838Z,36.5
2016-12-26T02:27:33.430Z,36.59
2016-12-26T02:28:14.008Z,36.69
2016-12-26T02:28:54.605Z,36.5
2016-12-26T02:29:35.195Z,36.5
2016-12-26T02:30:15.795Z,36.59
2016-12-26T02:30:56.373Z,36.5
2016-12-26T02:31:36.973Z,36.69
2016-12-26T02:32:17.566Z,36.4
2016-12-26T02:32:58.143Z,36.59
2016-12-26T02:33:38.732Z,36.59
2016-12-26T02:34:19.316Z,36.5
2016-12-26T02:34:59.905Z,36.59
2016-12-26T02:35:40.484Z,36.5
2016-12-26T02:36:21.069Z,36.59
2016-12-26T02:37:01.651Z,36.59
2016-12-26T02:37:42.232Z,36.69
2016-12-26T02:38:22.814Z,36.69
2016-12-26T02:39:03.419Z,36.59
2016-12-26T02:39:44.007Z,36.5
2016-12-26T02:40:24.593Z,36.5
2016-12-26T02:41:05.188Z,36.69
2016-12-26T02:41:45.767Z,36.59
2016-12-26T02:42:26.351Z,36.59
2016-12-26T02:43:06.929Z,36.69
2016-12-26T02:43:47.510Z,36.59
2016-12-26T02:44:28.093Z,36.5
2016-12-26T02:45:08.688Z,36.59
2016-12-26T02:45:49.270Z,36.5
2016-12-26T02:46:29.873Z,36.5
2016-12-26T02:47:10.459Z,36.5
2016-12-26T02:47:51.037Z,36.5
2016-12-26T02:48:31.630Z,36.5
2016-12-26T02:49:12.248Z,36.5
2016-12-26T02:49:52.831Z,36.59
2016-12-26T02:50:33.404Z,36.69
2016-12-26T02:51:13.986Z,36.59
2016-12-26T02:51:54.569Z,36.59
2016-12-26T02:52:35.150Z,36.59
2016-12-26T02:53:15.731Z,36.5
2016-12-26T02:53:56.312Z,36.59
2016-12-26T02:54:36.884Z,36.59
2016-12-26T02:55:17.472Z,36.5
2016-12-26T02:55:58.043Z,36.59
2016-12-26T02:56:38.640Z,36.59
2016-12-26T02:57:19.228Z,36.5
2016-12-26T02:57:59.824Z,36.59
2016-12-26T02:58:40.402Z,36.59
2016-12-26T02:59:20.991Z,36.69
2016-12-26T03:00:01.571Z,36.59
2016-12-26T03:00:42.162Z,36.59
2016-12-26T03:01:22.742Z,36.59
2016-12-26T03:02:03.317Z,36.59
2016-12-26T03:02:43.911Z,36.5
2016-12-26T03:03:24.504Z,36.5
2016-12-26T03:04:05.096Z,36.5
2016-12-26T03:04:45.690Z,36.59
2016-12-26T03:05:26.292Z,36.5
2016-12-26T03:06:06.879Z,36.69
2016-12-26T03:06:47.469Z,36.4
2016-12-26T03:07:28.064Z,36.59
2016-12-26T03:08:08.660Z,36.69
2016-12-26T03:08:49.240Z,36.5
2016-12-26T03:09:29.831Z,36.59
2016-12-26T03:10:10.414Z,36.59
2016-12-26T03:10:51.028Z,36.5
2016-12-26T03:11:31.614Z,36.59
2016-12-26T03:12:12.190Z,36.4
2016-12-26T03:12:52.777Z,36.59
2016-12-26T03:13:33.374Z,36.59
2016-12-26T03:14:13.961Z,36.5
2016-12-26T03:14:54.552Z,36.59
2016-12-26T03:15:35.132Z,36.59
2016-12-26T03:16:15.717Z,36.59
2016-12-26T03:16:56.295Z,36.5
2016-12-26T03:17:36.884Z,36.5
2016-12-26T03:18:17.490Z,36.59
2016-12-26T03:18:58.084Z,36.59
2016-12-26T03:19:38.667Z,36.69
2016-12-26T03:20:19.253Z,36.69
2016-12-26T03:20:59.843Z,36.5
2016-12-26T03:21:40.445Z,36.5
2016-12-26T03:22:21.044Z,36.59
2016-12-26T03:23:01.630Z,36.5
2016-12-26T03:23:42.210Z,36.59
2016-12-26T03:24:22.800Z,36.59
2016-12-26T03:25:03.389Z,36.4
2016-12-26T03:25:43.978Z,36.59
2016-12-26T03:26:24.559Z,36.5
2016-12-26T03:27:05.156Z,36.5
2016-12-26T03:27:45.729Z,36.59
2016-12-26T03:28:26.319Z,36.59
2016-12-26T03:29:06.903Z,36.59
2016-12-26T03:29:47.477Z,36.59
2016-12-26T03:30:28.053Z,36.5
2016-12-26T03:31:08.638Z,36.5
2016-12-26T03:31:49.225Z,36.5
2016-12-26T03:32:29.818Z,36.5
2016-12-26T03:33:10.392Z,36.59
2016-12-26T03:33:50.980Z,36.5
2016-12-26T03:34:31.583Z,36.5
2016-12-26T03:35:12.162Z,36.59
2016-12-26T03:35:52.745Z,36.59
2016-12-26T03:36:33.338Z,36.59
2016-12-26T03:37:13.932Z,36.69
2016-12-26T03:37:54.521Z,36.69
2016-12-26T03:38:35.116Z,36.59
2016-12-26T03:39:15.704Z,36.59
2016-12-26T03:39:56.302Z,36.59
2016-12-26T03:40:36.892Z,36.5
2016-12-26T03:41:17.463Z,36.5
2016-12-26T03:41:58.047Z,36.69
2016-12-26T03:42:38.642Z,36.5
2016-12-26T03:43:19.218Z,36.59
2016-12-26T03:43:59.807Z,36.5
2016-12-26T03:44:40.389Z,36.59
2016-12-26T03:45:20.973Z,36.5
2016-12-26T03:46:01.575Z,36.69
2016-12-26T03:46:42.163Z,36.5
2016-12-26T03:47:22.747Z,36.59
2016-12-26T03:48:03.345Z,36.5
2016-12-26T03:48:43.918Z,36.59
2016-12-26T03:49:24.501Z,36.59
2016-12-26T03:50:05.083Z,36.59
2016-12-26T03:50:45.675Z,36.69
2016-12-26T03:51:26.275Z,36.4
2016-12-26T03:52:06.875Z,36.5
2016-12-26T03:52:47.489Z,36.69
2016-12-26T03:53:28.090Z,36.59
2016-12-26T03:54:08.681Z,36.69
2016-12-26T03:54:49.269Z,36.59
2016-12-26T03:55:29.853Z,36.59
2016-12-26T03:56:10.450Z,36.5
2016-12-26T03:56:51.036Z,36.5
2016-12-26T03:57:31.624Z,36.69
2016-12-26T03:58:12.222Z,36.59
2016-12-26T03:58:52.808Z,36.5
2016-12-26T03:59:33.401Z,36.69
2016-12-26T04:00:13.981Z,36.5
2016-12-26T04:00:54.561Z,36.5
2016-12-26T04:01:35.141Z,36.59
2016-12-26T04:02:15.747Z,36.59
2016-12-26T04:02:57.348Z,36.59
2016-12-26T04:03:37.933Z,36.5
2016-12-26T04:04:18.506Z,36.59
2016-12-26T04:04:59.099Z,36.5
2016-12-26T04:05:39.672Z,36.69
2016-12-26T04:06:20.252Z,36.59
2016-12-26T04:07:00.830Z,36.69
2016-12-26T04:07:41.430Z,36.5
2016-12-26T04:08:22.011Z,36.5
2016-12-26T04:09:02.582Z,36.4
2016-12-26T04:09:43.158Z,36.69
2016-12-26T04:10:23.753Z,36.5
2016-12-26T04:11:04.348Z,36.59
2016-12-26T04:11:44.914Z,36.59
2016-12-26T04:12:25.498Z,36.5
2016-12-26T04:13:06.075Z,36.69
2016-12-26T04:13:46.660Z,36.59
2016-12-26T04:14:27.233Z,36.4
2016-12-26T04:15:07.825Z,36.59
2016-12-26T04:15:48.416Z,36.59
2016-12-26T04:16:29.015Z,36.69
2016-12-26T04:17:09.620Z,36.69
2016-12-26T04:17:50.220Z,36.59
2016-12-26T04:18:30.819Z,36.5
2016-12-26T04:19:11.406Z,36.59
2016-12-26T04:19:51.985Z,36.59
2016-12-26T04:20:32.578Z,36.5
2016-12-26T04:21:13.173Z,36.5
2016-12-26T04:21:53.765Z,36.59
2016-12-26T04:22:34.390Z,36.69
2016-12-26T04:23:14.985Z,36.59
2016-12-26T04:23:55.568Z,36.59
2016-12-26T04:24:36.150Z,36.59
2016-12-26T04:25:16.735Z,36.4
2016-12-26T04:25:57.310Z,36.59
2016-12-26T04:26:37.899Z,36.59
2016-12-26T04:27:18.486Z,36.59
2016-12-26T04:27:59.086Z,36.5
2016-12-26T04:28:39.672Z,36.59
2016-12-26T04:29:20.258Z,36.5
2016-12-26T04:30:00.857Z,36.5
2016-12-26T04:30:41.446Z,36.59
2016-12-26T04:31:22.051Z,36.59
2016-12-26T04:32:02.660Z,36.59
2016-12-26T04:32:43.252Z,36.5
2016-12-26T04:33:23.836Z,36.59
2016-12-26T04:34:04.451Z,36.59
2016-12-26T04:34:45.039Z,36.69
2016-12-26T04:35:25.628Z,36.5
2016-12-26T04:36:06.228Z,36.59
2016-12-26T04:36:46.813Z,36.5
2016-12-26T04:37:27.401Z,36.79
2016-12-26T04:38:07.981Z,36.4
2016-12-26T04:38:48.579Z,36.59
2016-12-26T04:39:29.162Z,36.69
2016-12-26T04:40:09.754Z,36.59
2016-12-26T04:40:50.339Z,36.5
2016-12-26T04:41:30.924Z,36.5
2016-12-26T04:42:11.513Z,36.5
2016-12-26T04:42:52.096Z,36.5
2016-12-26T04:43:32.674Z,36.69
2016-12-26T04:44:13.257Z,36.59
2016-12-26T04:44:53.840Z,36.59
2016-12-26T04:45:34.414Z,36.5
2016-12-26T04:46:15.000Z,36.5
2016-12-26T04:46:55.590Z,36.59
2016-12-26T04:47:36.180Z,36.59
2016-12-26T04:48:16.789Z,36.59
2016-12-26T04:48:57.385Z,36.59
2016-12-26T04:49:37.970Z,36.59
2016-12-26T04:50:18.557Z,36.5
2016-12-26T04:50:59.162Z,36.5
2016-12-26T04:51:39.741Z,36.5
2016-12-26T04:52:20.330Z,36.59
2016-12-26T04:53:00.920Z,36.5
2016-12-26T04:53:41.507Z,36.5
2016-12-26T04:54:22.093Z,36.5
2016-12-26T04:55:02.705Z,36.59
2016-12-26T04:55:43.313Z,36.59
2016-12-26T04:56:23.907Z,36.5
2016-12-26T04:57:04.496Z,36.4
2016-12-26T04:57:45.081Z,36.5
2016-12-26T04:58:25.667Z,36.59
2016-12-26T04:59:06.262Z,36.59
2016-12-26T04:59:46.838Z,36.59
2016-12-26T05:00:27.417Z,36.5
2016-12-26T05:01:08.035Z,36.59
2016-12-26T05:01:48.627Z,36.59
2016-12-26T05:02:29.234Z,36.5
2016-12-26T05:03:09.837Z,36.5
2016-12-26T05:03:50.429Z,36.5
2016-12-26T05:04:31.021Z,36.69
2016-12-26T05:05:11.619Z,36.59
2016-12-26T05:05:52.197Z,36.5
2016-12-26T05:06:32.790Z,36.59
2016-12-26T05:07:13.381Z,36.5
2016-12-26T05:07:53.961Z,36.4
2016-12-26T05:08:34.535Z,36.5
2016-12-26T05:09:15.141Z,36.5
2016-12-26T05:09:55.733Z,36.5
2016-12-26T05:10:36.324Z,36.69
2016-12-26T05:11:16.910Z,36.59
2016-12-26T05:11:57.501Z,36.5
2016-12-26T05:12:38.094Z,36.59
2016-12-26T05:13:18.691Z,36.59
2016-12-26T05:13:59.266Z,36.5
2016-12-26T05:14:39.846Z,36.5
2016-12-26T05:15:20.426Z,36.59
2016-12-26T05:16:01.020Z,36.5
2016-12-26T05:16:41.590Z,36.59
2016-12-26T05:17:22.171Z,36.59
2016-12-26T05:18:02.765Z,36.5
2016-12-26T05:18:43.376Z,36.5
2016-12-26T05:19:23.960Z,36.4
2016-12-26T05:20:04.547Z,36.59
2016-12-26T05:20:45.128Z,36.59
2016-12-26T05:21:25.734Z,36.5
2016-12-26T05:22:06.332Z,36.59
2016-12-26T05:22:46.953Z,36.5
2016-12-26T05:23:27.528Z,36.5
2016-12-26T05:24:08.110Z,36.69
2016-12-26T05:24:48.704Z,36.69
2016-12-26T05:25:29.287Z,36.5
2016-12-26T05:26:09.868Z,36.59
2016-12-26T05:26:50.462Z,36.59
2016-12-26T05:27:31.059Z,36.59
2016-12-26T05:28:11.658Z,36.5
2016-12-26T05:28:52.245Z,36.59
2016-12-26T05:29:32.824Z,36.69
2016-12-26T05:30:13.422Z,36.69
2016-12-26T05:30:54.010Z,36.59
2016-12-26T05:31:34.601Z,36.5
2016-12-26T05:32:15.176Z,36.59
2016-12-26T05:32:55.767Z,36.5
2016-12-26T05:33:36.357Z,36.5
2016-12-26T05:34:16.936Z,36.59
2016-12-26T05:34:57.514Z,36.59
2016-12-26T05:35:38.101Z,36.59
2016-12-26T05:36:18.682Z,36.5
2016-12-26T05:36:59.278Z,36.5
2016-12-26T05:37:39.875Z,36.59
2016-12-26T05:38:20.469Z,36.5
2016-12-26T05:39:01.044Z,36.5
2016-12-26T05:39:41.634Z,36.59
2016-12-26T05:40:22.225Z,36.59
2016-12-26T05:41:02.803Z,36.4
2016-12-26T05:41:43.389Z,36.59
2016-12-26T05:42:23.975Z,36.59
2016-12-26T05:43:04.560Z,36.59
2016-12-26T05:43:45.151Z,36.5
2016-12-26T05:44:25.736Z,36.69
2016-12-26T05:45:06.323Z,36.5
2016-12-26T05:45:46.920Z,36.69
2016-12-26T05:46:27.495Z,36.5
2016-12-26T05:47:08.088Z,36.5
2016-12-26T05:47:48.709Z,36.5
2016-12-26T05:48:29.284Z,36.48
2016-12-26T05:49:09.860Z,36.5
2016-12-26T05:49:50.451Z,36.4
2016-12-26T05:50:31.052Z,36.69
2016-12-26T05:51:11.645Z,36.69
2016-12-26T05:51:52.239Z,36.5
2016-12-26T05:52:32.837Z,36.48
2016-12-26T05:53:13.431Z,36.59
2016-12-26T05:53:54.010Z,36.59
2016-12-26T05:54:34.585Z,36.5
2016-12-26T05:55:15.169Z,36.69
2016-12-26T05:55:55.771Z,36.59
2016-12-26T05:56:36.371Z,36.69
2016-12-26T05:57:16.969Z,36.5
2016-12-26T05:57:57.567Z,36.57
2016-12-26T05:58:38.147Z,36.69
2016-12-26T05:59:18.731Z,36.59
2016-12-26T05:59:59.322Z,36.69
2016-12-26T06:00:39.912Z,36.57
2016-12-26T06:01:20.507Z,36.48
2016-12-26T06:02:01.090Z,36.5
2016-12-26T06:02:41.687Z,36.57
2016-12-26T06:03:22.275Z,36.59
2016-12-26T06:04:02.855Z,36.5
2016-12-26T06:04:43.433Z,36.5
2016-12-26T06:05:24.010Z,36.59
2016-12-26T06:06:05.457Z,36.48
2016-12-26T06:06:46.038Z,36.4
2016-12-26T06:07:26.625Z,36.57
2016-12-26T06:08:07.209Z,36.38
2016-12-26T06:08:47.793Z,36.69
2016-12-26T06:09:28.373Z,36.38
2016-12-26T06:10:08.973Z,36.4
2016-12-26T06:10:49.559Z,36.38
2016-12-26T06:11:30.136Z,36.59
2016-12-26T06:12:10.725Z,36.38
2016-12-26T06:12:51.311Z,36.38
2016-12-26T06:13:31.895Z,36.5
2016-12-26T06:14:12.474Z,36.48
2016-12-26T06:14:53.056Z,36.59
2016-12-26T06:15:33.640Z,36.48
2016-12-26T06:16:14.237Z,36.57
2016-12-26T06:16:54.824Z,36.59
2016-12-26T06:17:35.401Z,36.79
2016-12-26T06:18:15.991Z,36.57
2016-12-26T06:18:56.590Z,36.38
2016-12-26T06:19:37.191Z,36.57
2016-12-26T06:20:17.782Z,36.67
2016-12-26T06:20:58.362Z,36.38
2016-12-26T06:21:38.947Z,36.48
2016-12-26T06:22:19.525Z,36.5
2016-12-26T06:23:00.109Z,36.57
2016-12-26T06:23:40.721Z,36.48
2016-12-26T06:24:21.292Z,36.57
2016-12-26T06:25:01.911Z,36.67
2016-12-26T06:25:42.475Z,36.48
2016-12-26T06:26:23.058Z,36.59
2016-12-26T06:27:03.653Z,36.48
2016-12-26T06:27:44.263Z,36.5
2016-12-26T06:28:24.865Z,36.4
2016-12-26T06:29:05.450Z,36.59
2016-12-26T06:29:46.029Z,36.59
2016-12-26T06:30:26.622Z,36.59
2016-12-26T06:31:07.203Z,36.57
2016-12-26T06:31:47.783Z,36.38
2016-12-26T06:32:28.357Z,36.57
2016-12-26T06:33:08.937Z,36.48
2016-12-26T06:33:49.524Z,36.67
2016-12-26T06:34:30.098Z,36.5
2016-12-26T06:35:10.669Z,36.67
2016-12-26T06:35:51.253Z,36.48
2016-12-26T06:36:31.836Z,36.57
2016-12-26T06:37:12.423Z,36.67
2016-12-26T06:37:53.000Z,36.57
2016-12-26T06:38:33.582Z,36.48
2016-12-26T06:39:14.164Z,36.59
2016-12-26T06:39:54.753Z,36.5
2016-12-26T06:40:35.339Z,36.48
2016-12-26T06:41:15.934Z,36.48
2016-12-26T06:41:56.520Z,36.57
2016-12-26T06:42:37.116Z,36.67
2016-12-26T06:43:17.718Z,36.4
2016-12-26T06:43:58.300Z,36.59
2016-12-26T06:44:38.878Z,36.48
2016-12-26T06:45:19.460Z,36.48
2016-12-26T06:46:00.048Z,36.67
2016-12-26T06:46:40.654Z,36.38
2016-12-26T06:47:21.279Z,36.57
2016-12-26T06:48:01.867Z,36.67
2016-12-26T06:48:42.450Z,36.57
2016-12-26T06:49:23.039Z,36.59
2016-12-26T06:50:03.622Z,36.57
2016-12-26T06:50:44.209Z,36.59
2016-12-26T06:51:24.821Z,36.57
2016-12-26T06:52:05.413Z,36.57
2016-12-26T06:52:46.006Z,36.48
2016-12-26T06:53:26.596Z,36.48
2016-12-26T06:54:07.203Z,36.69
2016-12-26T06:54:47.779Z,36.5
2016-12-26T06:55:28.372Z,36.57
2016-12-26T06:56:08.969Z,36.48
2016-12-26T06:56:49.583Z,36.48
2016-12-26T06:57:30.162Z,36.38
2016-12-26T06:58:10.746Z,36.38
2016-12-26T06:58:51.335Z,36.48
2016-12-26T06:59:31.922Z,36.5
2016-12-26T07:00:12.502Z,36.57
2016-12-26T07:00:53.096Z,36.48
2016-12-26T07:01:33.679Z,36.4
2016-12-26T07:02:14.269Z,36.67
2016-12-26T07:02:54.871Z,36.67
2016-12-26T07:03:35.448Z,36.48
2016-12-26T07:04:16.059Z,36.67
2016-12-26T07:04:56.650Z,36.57
2016-12-26T07:05:37.229Z,36.67
2016-12-26T07:06:17.835Z,36.57
2016-12-26T07:06:58.416Z,36.57
2016-12-26T07:07:39.019Z,36.48
2016-12-26T07:08:19.604Z,36.48
2016-12-26T07:09:00.180Z,36.59
2016-12-26T07:09:40.774Z,36.57
2016-12-26T07:10:21.367Z,36.48
2016-12-26T07:11:01.966Z,36.57
2016-12-26T07:11:42.546Z,36.48
2016-12-26T07:12:23.189Z,36.57
2016-12-26T07:13:03.771Z,36.57
2016-12-26T07:13:44.366Z,36.5
2016-12-26T07:14:24.996Z,36.5
2016-12-26T07:15:05.585Z,36.5
2016-12-26T07:15:46.178Z,36.48
2016-12-26T07:16:26.766Z,36.69
2016-12-26T07:17:07.371Z,36.48
2016-12-26T07:17:47.956Z,36.57
2016-12-26T07:18:28.551Z,36.67
2016-12-26T07:19:09.131Z,36.57
2016-12-26T07:19:49.722Z,36.77
2016-12-26T07:20:30.292Z,36.67
2016-12-26T07:21:10.888Z,36.87
2016-12-26T07:21:51.470Z,36.57
2016-12-26T07:22:32.048Z,36.67
2016-12-26T07:23:12.630Z,36.77
2016-12-26T07:23:53.230Z,36.87
2016-12-26T07:24:33.821Z,36.77
2016-12-26T07:25:14.398Z,36.87
2016-12-26T07:25:54.977Z,36.67
2016-12-26T07:26:35.557Z,36.77
2016-12-26T07:27:16.149Z,36.67
2016-12-26T07:27:56.741Z,36.77
2016-12-26T07:28:37.326Z,36.77
2016-12-26T07:29:17.914Z,36.67
2016-12-26T07:29:58.496Z,36.67
2016-12-26T07:30:39.079Z,36.77
2016-12-26T07:31:19.666Z,36.77
2016-12-26T07:32:00.266Z,36.79
2016-12-26T07:32:40.855Z,36.67
2016-12-26T07:33:21.448Z,36.77
2016-12-26T07:34:02.038Z,36.77
2016-12-26T07:34:42.622Z,36.67
2016-12-26T07:35:23.201Z,36.79
2016-12-26T07:36:03.796Z,36.67
2016-12-26T07:36:44.383Z,36.69
2016-12-26T07:37:24.955Z,36.79
2016-12-26T07:38:05.528Z,36.69
2016-12-26T07:38:46.119Z,36.67
2016-12-26T07:39:26.693Z,36.57
2016-12-26T07:40:07.287Z,36.67
2016-12-26T07:40:47.874Z,36.77
2016-12-26T07:41:28.473Z,36.67
2016-12-26T07:42:09.076Z,36.67
2016-12-26T07:42:49.670Z,36.77
2016-12-26T07:43:30.253Z,36.77
2016-12-26T07:44:10.837Z,36.69
2016-12-26T07:44:51.434Z,36.67
2016-12-26T07:45:32.035Z,36.69
2016-12-26T07:46:12.615Z,36.67
2016-12-26T07:46:53.206Z,36.69
2016-12-26T07:47:33.798Z,36.67
2016-12-26T07:48:14.394Z,36.57
2016-12-26T07:48:54.991Z,36.67
2016-12-26T07:49:35.568Z,36.77
2016-12-26T07:50:16.152Z,36.57
2016-12-26T07:50:56.742Z,36.57
2016-12-26T07:51:37.325Z,36.67
2016-12-26T07:52:17.904Z,36.57
2016-12-26T07:52:58.488Z,36.67
2016-12-26T07:53:39.067Z,36.69
2016-12-26T07:54:19.656Z,36.67
2016-12-26T07:55:00.236Z,36.57
2016-12-26T07:55:40.816Z,36.69
2016-12-26T07:56:21.409Z,36.77
2016-12-26T07:57:02.000Z,36.67
2016-12-26T07:57:42.591Z,36.79
2016-12-26T07:58:23.179Z,36.69
2016-12-26T07:59:03.780Z,36.67
2016-12-26T07:59:44.374Z,36.69
2016-12-26T08:00:24.967Z,36.79
2016-12-26T08:01:05.562Z,36.77
2016-12-26T08:01:46.137Z,36.88
2016-12-26T08:02:26.719Z,36.77
2016-12-26T08:03:07.298Z,36.77
2016-12-26T08:03:47.868Z,36.67
2016-12-26T08:04:28.482Z,36.67
2016-12-26T08:05:09.061Z,36.77
2016-12-26T08:05:49.652Z,36.69
2016-12-26T08:06:30.229Z,36.79
2016-12-26T08:07:10.803Z,36.88
2016-12-26T08:07:51.393Z,36.69
2016-12-26T08:08:31.987Z,36.67
2016-12-26T08:09:12.582Z,36.79
2016-12-26T08:09:53.191Z,36.69
2016-12-26T08:10:33.777Z,36.67
2016-12-26T08:11:14.362Z,36.67
2016-12-26T08:11:54.945Z,36.67
2016-12-26T08:12:35.522Z,36.77
2016-12-26T08:13:16.121Z,36.77
2016-12-26T08:13:56.695Z,36.67
2016-12-26T08:14:37.291Z,36.67
2016-12-26T08:15:17.874Z,36.57
2016-12-26T08:15:58.455Z,36.67
2016-12-26T08:16:39.043Z,36.79
2016-12-26T08:17:19.622Z,36.67
2016-12-26T08:18:00.236Z,36.69
2016-12-26T08:18:40.809Z,36.77
2016-12-26T08:19:21.405Z,36.69
2016-12-26T08:20:02.002Z,36.67
2016-12-26T08:20:42.606Z,36.77
2016-12-26T08:21:23.187Z,36.67
2016-12-26T08:22:03.768Z,36.67
2016-12-26T08:22:44.357Z,36.69
2016-12-26T08:23:24.929Z,36.69
2016-12-26T08:24:05.509Z,36.77
2016-12-26T08:24:46.096Z,36.67
2016-12-26T08:25:26.685Z,36.69
2016-12-26T08:26:07.266Z,36.57
2016-12-26T08:26:47.853Z,36.69
2016-12-26T08:27:28.451Z,36.57
2016-12-26T08:28:09.050Z,36.67
2016-12-26T08:28:49.638Z,36.77
2016-12-26T08:29:30.235Z,36.69
2016-12-26T08:30:10.821Z,36.77
2016-12-26T08:30:51.409Z,36.77
2016-12-26T08:31:32.007Z,36.79
2016-12-26T08:32:12.616Z,36.69
2016-12-26T08:32:53.210Z,36.69
2016-12-26T08:33:33.797Z,36.59
2016-12-26T08:34:14.396Z,36.5
2016-12-26T08:34:54.969Z,36.3
2016-12-26T08:35:35.538Z,36.21
2016-12-26T08:36:16.133Z,36.3
2016-12-26T08:36:56.711Z,36.21
2016-12-26T08:37:37.306Z,35.82
2016-12-26T08:38:17.893Z,35.92
2016-12-26T08:38:58.488Z,35.92
2016-12-26T08:39:39.078Z,35.92
2016-12-26T08:40:19.678Z,35.63
2016-12-26T08:41:00.254Z,35.53
2016-12-26T08:41:40.853Z,35.53
2016-12-26T08:42:21.439Z,35.05
2016-12-26T08:43:02.036Z,35.14
2016-12-26T08:43:42.633Z,35.24
2016-12-26T08:44:23.263Z,35.24
2016-12-26T08:45:03.842Z,35.05
2016-12-26T08:45:44.435Z,35.14
2016-12-26T08:46:25.010Z,35.26
2016-12-26T08:47:05.585Z,35.14
2016-12-26T08:47:46.168Z,35.55